createdAt,value
2022-10-17T00:01:01.700Z,13.09
2022-10-17T00:03:29.319Z,13.06
2022-10-17T00:05:58.317Z,13.02
2022-10-17T00:08:26.014Z,13.00
2022-10-17T00:10:58.991Z,12.99
2022-10-17T00:13:27.256Z,12.97
2022-10-17T00:15:55.135Z,12.95
2022-10-17T00:18:23.024Z,12.95
2022-10-17T00:20:50.513Z,12.93
2022-10-17T00:23:18.474Z,12.93
2022-10-17T00:25:46.347Z,12.91
2022-10-17T00:28:15.580Z,12.91
2022-10-17T00:30:43.019Z,12.90
2022-10-17T00:33:10.486Z,12.91
2022-10-17T00:35:37.935Z,12.93
2022-10-17T00:38:05.381Z,12.96
2022-10-17T00:40:32.838Z,12.95
2022-10-17T00:43:00.354Z,12.97
2022-10-17T00:45:30.870Z,12.97
2022-10-17T00:48:06.381Z,12.98
2022-10-17T00:50:36.437Z,12.90
2022-10-17T00:53:06.639Z,12.97
2022-10-17T00:55:43.608Z,12.96
2022-10-17T00:58:11.311Z,13.00
2022-10-17T01:00:39.174Z,12.97
2022-10-17T01:03:06.695Z,13.01
2022-10-17T01:05:34.304Z,13.02
2022-10-17T01:08:02.343Z,13.03
2022-10-17T01:10:41.031Z,13.04
2022-10-17T01:13:22.401Z,13.06
2022-10-17T01:15:58.621Z,13.08
2022-10-17T01:18:59.676Z,13.10
2022-10-17T01:21:56.215Z,13.12
2022-10-17T01:24:51.721Z,13.12
2022-10-17T01:27:35.502Z,13.11
2022-10-17T01:30:24.171Z,13.14
2022-10-17T01:33:29.543Z,13.13
2022-10-17T01:36:12.830Z,13.12
2022-10-17T01:39:38.435Z,13.12
2022-10-17T01:42:33.118Z,13.15
2022-10-17T01:45:00.522Z,13.15
2022-10-17T01:47:32.214Z,13.16
2022-10-17T01:50:05.326Z,13.14
2022-10-17T01:52:42.554Z,13.13
2022-10-17T01:55:09.967Z,13.16
2022-10-17T01:57:43.095Z,13.16
2022-10-17T02:00:14.713Z,13.16
2022-10-17T02:02:46.039Z,13.20
2022-10-17T02:05:13.538Z,13.23
2022-10-17T02:07:43.812Z,13.22
2022-10-17T02:10:20.695Z,13.24
2022-10-17T02:13:03.139Z,13.25
2022-10-17T02:15:52.789Z,13.27
2022-10-17T02:18:42.549Z,13.28
2022-10-17T02:21:19.952Z,13.23
2022-10-17T02:24:02.208Z,13.28
2022-10-17T02:26:36.415Z,13.27
2022-10-17T02:29:07.187Z,13.29
2022-10-17T02:31:41.231Z,13.29
2022-10-17T02:34:22.021Z,13.30
2022-10-17T02:36:54.730Z,13.30
2022-10-17T02:39:24.402Z,13.29
2022-10-17T02:41:54.724Z,13.27
2022-10-17T02:44:24.361Z,13.29
2022-10-17T02:46:58.912Z,13.28
2022-10-17T02:49:31.218Z,13.30
2022-10-17T02:52:05.949Z,13.34
2022-10-17T02:54:58.409Z,13.35
2022-10-17T02:57:32.057Z,13.37
2022-10-17T03:00:02.291Z,13.36
2022-10-17T03:02:30.127Z,13.38
2022-10-17T03:04:57.743Z,13.39
2022-10-17T03:07:25.173Z,13.39
2022-10-17T03:09:52.643Z,13.36
2022-10-17T03:12:20.093Z,13.43
2022-10-17T03:14:47.549Z,13.42
2022-10-17T03:17:15.022Z,13.48
2022-10-17T03:19:42.470Z,13.51
2022-10-17T03:22:10.208Z,13.59
2022-10-17T03:24:37.685Z,13.64
2022-10-17T03:27:05.332Z,13.65
2022-10-17T03:29:32.792Z,13.73
2022-10-17T03:32:00.270Z,13.77
2022-10-17T03:34:27.736Z,13.91
2022-10-17T03:36:55.366Z,14.03
2022-10-17T03:39:22.854Z,14.10
2022-10-17T03:41:50.310Z,14.12
2022-10-17T03:44:17.822Z,14.15
2022-10-17T03:46:45.296Z,14.19
2022-10-17T03:49:12.831Z,14.23
2022-10-17T03:51:40.327Z,14.27
2022-10-17T03:54:07.781Z,14.26
2022-10-17T03:56:35.257Z,14.24
2022-10-17T03:59:03.007Z,14.27
2022-10-17T04:01:30.656Z,14.29
2022-10-17T04:03:58.517Z,14.31
2022-10-17T04:06:25.975Z,14.30
2022-10-17T04:08:53.478Z,14.32
2022-10-17T04:11:22.586Z,14.32
2022-10-17T04:13:55.488Z,14.29
2022-10-17T04:16:23.870Z,14.28
2022-10-17T04:18:55.474Z,14.32
2022-10-17T04:21:24.628Z,14.29
2022-10-17T04:23:56.335Z,14.30
2022-10-17T04:26:24.385Z,14.30
2022-10-17T04:28:52.287Z,14.31
2022-10-17T04:31:20.365Z,14.29
2022-10-17T04:33:50.205Z,14.36
2022-10-17T04:36:20.003Z,14.33
2022-10-17T04:38:48.065Z,14.36
2022-10-17T04:41:18.927Z,14.40
2022-10-17T04:43:50.100Z,14.40
2022-10-17T04:46:18.890Z,14.42
2022-10-17T04:48:46.576Z,14.45
2022-10-17T04:51:16.422Z,14.46
2022-10-17T04:53:45.545Z,14.46
2022-10-17T04:58:42.506Z,14.47
2022-10-17T05:01:13.105Z,14.56
2022-10-17T05:03:41.276Z,14.58
2022-10-17T05:06:14.265Z,14.64
2022-10-17T05:08:42.099Z,14.64
2022-10-17T05:11:27.505Z,14.64
2022-10-17T05:13:57.649Z,14.67
2022-10-17T05:16:26.779Z,14.67
2022-10-17T05:18:57.150Z,14.68
2022-10-17T05:21:26.353Z,14.68
2022-10-17T05:23:54.721Z,14.68
2022-10-17T05:26:23.411Z,14.73
2022-10-17T05:28:52.407Z,14.75
2022-10-17T05:31:20.268Z,14.78
2022-10-17T05:33:47.786Z,14.80
2022-10-17T05:36:15.311Z,14.88
2022-10-17T05:38:42.912Z,14.89
2022-10-17T05:41:11.042Z,14.93
2022-10-17T05:43:38.513Z,14.94
2022-10-17T05:46:07.161Z,14.88
2022-10-17T05:48:35.261Z,14.90
2022-10-17T05:51:08.755Z,14.92
2022-10-17T05:53:38.822Z,14.94
2022-10-17T05:56:08.412Z,14.95
2022-10-17T05:58:49.739Z,14.97
2022-10-17T06:01:18.269Z,15.00
2022-10-17T06:03:45.825Z,15.01
2022-10-17T06:06:14.678Z,15.03
2022-10-17T06:08:42.340Z,15.04
2022-10-17T06:11:10.539Z,15.04
2022-10-17T06:13:39.426Z,15.02
2022-10-17T06:16:07.535Z,15.06
2022-10-17T06:18:35.165Z,15.06
2022-10-17T06:21:05.664Z,15.06
2022-10-17T06:23:33.475Z,15.09
2022-10-17T06:26:05.245Z,15.10
2022-10-17T06:28:33.092Z,15.16
2022-10-17T06:31:00.679Z,15.20
2022-10-17T06:33:28.236Z,15.27
2022-10-17T06:35:56.823Z,15.30
2022-10-17T06:38:24.637Z,15.32
2022-10-17T06:40:53.926Z,15.36
2022-10-17T06:43:26.924Z,15.41
2022-10-17T06:48:27.973Z,15.44
2022-10-17T06:50:59.406Z,15.45
2022-10-17T06:53:32.444Z,15.50
2022-10-17T06:56:03.001Z,15.51
2022-10-17T06:58:32.129Z,15.53
2022-10-17T07:01:04.575Z,15.58
2022-10-17T07:03:32.798Z,15.56
2022-10-17T07:06:00.261Z,15.58
2022-10-17T07:08:27.844Z,15.61
2022-10-17T07:10:55.594Z,15.60
2022-10-17T07:13:23.519Z,15.57
2022-10-17T07:15:51.076Z,15.61
2022-10-17T07:18:18.608Z,15.62
2022-10-17T07:20:54.213Z,15.62
2022-10-17T07:23:22.363Z,15.66
2022-10-17T07:25:50.109Z,15.68
2022-10-17T07:28:17.682Z,15.68
2022-10-17T07:30:46.809Z,15.68
2022-10-17T07:33:16.826Z,15.68
2022-10-17T07:35:44.318Z,15.68
2022-10-17T07:38:12.170Z,15.67
2022-10-17T07:40:39.619Z,15.67
2022-10-17T07:43:07.143Z,15.69
2022-10-17T07:45:34.595Z,15.67
2022-10-17T07:48:02.101Z,15.70
2022-10-17T07:50:29.617Z,15.71
2022-10-17T07:52:57.119Z,15.75
2022-10-17T07:55:24.672Z,15.80
2022-10-17T07:57:52.250Z,15.80
2022-10-17T08:00:20.115Z,15.83
2022-10-17T08:02:47.746Z,15.91
2022-10-17T08:05:15.314Z,15.95
2022-10-17T08:07:42.767Z,15.97
2022-10-17T08:10:13.058Z,15.96
2022-10-17T08:12:40.601Z,15.96
2022-10-17T08:15:09.629Z,15.91
2022-10-17T08:17:38.872Z,15.86
2022-10-17T08:20:07.633Z,15.85
2022-10-17T08:22:35.099Z,15.83
2022-10-17T08:25:02.701Z,15.79
2022-10-17T08:27:30.220Z,15.80
2022-10-17T08:29:57.722Z,15.80
2022-10-17T08:32:28.052Z,15.79
2022-10-17T08:34:56.582Z,15.81
2022-10-17T08:37:24.296Z,15.82
2022-10-17T08:39:51.792Z,15.80
2022-10-17T08:42:44.203Z,15.79
2022-10-17T08:45:33.538Z,15.83
2022-10-17T08:48:03.113Z,15.81
2022-10-17T08:50:38.106Z,15.80
2022-10-17T08:53:15.688Z,15.83
2022-10-17T08:55:54.447Z,15.84
2022-10-17T08:58:33.533Z,15.85
2022-10-17T09:01:19.816Z,15.87
2022-10-17T09:04:24.741Z,15.92
2022-10-17T09:07:01.155Z,15.94
2022-10-17T09:09:49.558Z,15.97
2022-10-17T09:12:53.033Z,16.00
2022-10-17T09:15:46.566Z,16.03
2022-10-17T09:18:28.078Z,16.03
2022-10-17T09:21:00.689Z,16.00
2022-10-17T09:23:46.208Z,16.03
2022-10-17T09:26:14.166Z,16.02
2022-10-17T09:28:43.598Z,16.01
2022-10-17T09:31:23.419Z,16.02
2022-10-17T09:33:58.022Z,16.03
2022-10-17T09:36:29.347Z,16.03
2022-10-17T09:38:59.958Z,16.04
2022-10-17T09:41:46.107Z,16.08
2022-10-17T09:44:16.970Z,16.16
2022-10-17T09:47:11.895Z,16.21
2022-10-17T09:49:41.702Z,16.26
2022-10-17T09:52:16.339Z,16.26
2022-10-17T09:54:48.861Z,16.26
2022-10-17T09:57:18.357Z,16.22
2022-10-17T09:59:47.091Z,16.21
2022-10-17T10:02:14.929Z,16.21
2022-10-17T10:05:18.940Z,16.21
2022-10-17T10:08:04.241Z,16.24
2022-10-17T10:10:33.277Z,16.24
2022-10-17T10:13:12.733Z,16.25
2022-10-17T10:15:43.262Z,16.21
2022-10-17T10:18:26.207Z,16.21
2022-10-17T10:21:04.585Z,16.16
2022-10-17T10:23:32.118Z,16.20
2022-10-17T10:26:03.415Z,16.22
2022-10-17T10:28:34.027Z,16.22
2022-10-17T10:31:08.844Z,16.21
2022-10-17T10:33:42.014Z,16.18
2022-10-17T10:36:11.012Z,16.19
2022-10-17T10:38:42.405Z,16.20
2022-10-17T10:41:12.507Z,16.20
2022-10-17T10:43:44.609Z,16.23
2022-10-17T10:46:32.313Z,16.20
2022-10-17T10:49:03.123Z,16.19
2022-10-17T10:51:35.441Z,16.18
2022-10-17T10:54:21.414Z,16.17
2022-10-17T10:59:33.611Z,16.01
2022-10-17T11:02:02.214Z,15.99
2022-10-17T11:04:43.333Z,15.97
2022-10-17T11:07:23.503Z,16.01
2022-10-17T11:10:15.189Z,16.07
2022-10-17T11:15:32.605Z,16.15
2022-10-17T11:18:07.495Z,16.21
2022-10-17T11:20:50.086Z,16.23
2022-10-17T11:23:31.317Z,16.25
2022-10-17T11:26:03.845Z,16.28
2022-10-17T11:28:31.808Z,16.29
2022-10-17T11:31:05.756Z,16.35
2022-10-17T11:33:58.078Z,16.37
2022-10-17T11:36:30.637Z,16.34
2022-10-17T11:39:04.698Z,16.28
2022-10-17T11:41:43.509Z,16.27
2022-10-17T11:44:29.381Z,16.28
2022-10-17T11:47:02.356Z,16.24
2022-10-17T11:49:39.887Z,16.20
2022-10-17T11:52:55.341Z,16.18
2022-10-17T11:55:25.049Z,16.21
2022-10-17T11:58:25.406Z,16.15
2022-10-17T12:01:12.502Z,16.09
2022-10-17T12:04:08.284Z,16.16
2022-10-17T12:06:54.282Z,16.08
2022-10-17T12:09:32.499Z,16.04
2022-10-17T12:12:02.993Z,16.09
2022-10-17T12:14:46.956Z,16.06
2022-10-17T12:17:42.260Z,16.14
2022-10-17T12:20:28.460Z,16.16
2022-10-17T12:23:00.472Z,16.13
2022-10-17T12:25:32.692Z,16.12
2022-10-17T12:28:17.208Z,16.08
2022-10-17T12:30:54.198Z,16.06
2022-10-17T12:33:50.073Z,15.96
2022-10-17T12:36:21.091Z,15.92
2022-10-17T12:39:03.459Z,15.93
2022-10-17T12:41:40.119Z,15.82
2022-10-17T12:44:21.430Z,15.81
2022-10-17T12:47:07.958Z,15.81
2022-10-17T12:49:46.663Z,15.76
2022-10-17T12:55:27.420Z,15.77
2022-10-17T12:58:04.557Z,15.76
2022-10-17T13:01:05.399Z,15.79
2022-10-17T13:03:47.740Z,15.88
2022-10-17T13:06:30.661Z,16.04
2022-10-17T13:09:05.766Z,16.18
2022-10-17T13:11:37.253Z,16.25
2022-10-17T13:14:12.947Z,16.39
2022-10-17T13:16:52.090Z,16.48
2022-10-17T13:19:23.350Z,16.51
2022-10-17T13:22:05.988Z,16.55
2022-10-17T13:24:42.010Z,16.38
2022-10-17T13:27:31.229Z,16.61
2022-10-17T13:30:00.965Z,16.67
2022-10-17T13:32:37.313Z,16.71
2022-10-17T13:35:17.114Z,16.71
2022-10-17T13:37:52.984Z,16.71
2022-10-17T13:43:24.097Z,16.73
2022-10-17T13:45:54.835Z,16.77
2022-10-17T13:48:28.674Z,16.75
2022-10-17T13:51:02.466Z,16.73
2022-10-17T13:53:34.750Z,16.67
2022-10-17T13:56:29.259Z,16.68
2022-10-17T13:59:05.135Z,16.73
2022-10-17T14:01:33.281Z,16.74
2022-10-17T14:04:08.940Z,16.78
2022-10-17T14:06:49.305Z,16.73
2022-10-17T14:09:29.759Z,16.81
2022-10-17T14:12:01.634Z,16.76
2022-10-17T14:14:32.191Z,16.89
2022-10-17T14:17:22.860Z,16.93
2022-10-17T14:20:16.115Z,16.98
2022-10-17T14:22:50.577Z,16.95
2022-10-17T14:25:39.004Z,17.13
2022-10-17T14:28:11.001Z,17.28
2022-10-17T14:30:56.308Z,17.27
2022-10-17T14:33:29.497Z,17.30
2022-10-17T14:35:58.617Z,17.37
2022-10-17T14:38:27.017Z,17.26
2022-10-17T14:41:09.764Z,17.40
2022-10-17T14:43:45.528Z,17.25
2022-10-17T14:46:16.832Z,17.16
2022-10-17T14:48:47.603Z,17.19
2022-10-17T14:51:18.027Z,17.15
2022-10-17T14:54:06.403Z,17.12
2022-10-17T14:56:42.552Z,17.08
2022-10-17T14:59:13.763Z,17.09
2022-10-17T15:01:43.272Z,17.01
2022-10-17T15:04:11.261Z,16.98
2022-10-17T15:06:40.595Z,16.94
2022-10-17T15:09:08.143Z,16.91
2022-10-17T15:11:35.598Z,16.95
2022-10-17T15:14:03.118Z,16.89
2022-10-17T15:16:35.675Z,16.95
2022-10-17T15:19:03.199Z,16.96
2022-10-17T15:21:40.505Z,16.98
2022-10-17T15:24:10.908Z,16.97
2022-10-17T15:26:38.907Z,16.96
2022-10-17T15:29:07.234Z,16.88
2022-10-17T15:31:35.894Z,16.86
2022-10-17T15:34:03.399Z,16.84
2022-10-17T15:36:36.827Z,16.82
2022-10-17T15:39:04.637Z,16.74
2022-10-17T15:41:33.639Z,16.69
2022-10-17T15:44:01.218Z,16.62
2022-10-17T15:46:31.303Z,16.51
2022-10-17T15:49:03.548Z,16.50
2022-10-17T15:51:31.084Z,16.45
2022-10-17T15:54:01.230Z,16.37
2022-10-17T15:56:35.829Z,16.35
2022-10-17T15:59:05.715Z,16.31
2022-10-17T16:01:35.001Z,16.29
2022-10-17T16:04:02.501Z,16.28
2022-10-17T16:06:30.306Z,16.17
2022-10-17T16:08:57.820Z,16.20
2022-10-17T16:11:34.213Z,16.18
2022-10-17T16:14:04.377Z,16.15
2022-10-17T16:16:32.550Z,16.11
2022-10-17T16:19:01.381Z,16.07
2022-10-17T16:24:05.209Z,16.03
2022-10-17T16:26:33.254Z,16.02
2022-10-17T16:29:02.956Z,15.99
2022-10-17T16:31:40.538Z,15.95
2022-10-17T16:34:08.893Z,15.94
2022-10-17T16:36:36.465Z,15.84
2022-10-17T16:39:04.391Z,15.82
2022-10-17T16:41:35.266Z,15.77
2022-10-17T16:44:05.191Z,15.73
2022-10-17T16:46:34.226Z,15.69
2022-10-17T16:49:01.721Z,15.64
2022-10-17T16:51:29.292Z,15.63
2022-10-17T16:54:00.055Z,15.57
2022-10-17T16:56:29.829Z,15.56
2022-10-17T16:58:57.533Z,15.54
2022-10-17T17:01:26.657Z,15.53
2022-10-17T17:03:54.593Z,15.50
2022-10-17T17:06:30.125Z,15.47
2022-10-17T17:08:58.544Z,15.46
2022-10-17T17:11:28.523Z,15.44
2022-10-17T17:13:57.724Z,15.43
2022-10-17T17:16:26.886Z,15.40
2022-10-17T17:19:07.849Z,15.35
2022-10-17T17:21:36.122Z,15.33
2022-10-17T17:24:05.170Z,15.29
2022-10-17T17:26:36.098Z,15.31
2022-10-17T17:29:04.257Z,15.29
2022-10-17T17:31:34.905Z,15.28
2022-10-17T17:34:03.318Z,15.26
2022-10-17T17:36:33.086Z,15.27
2022-10-17T17:39:03.989Z,15.27
2022-10-17T17:41:34.280Z,15.25
2022-10-17T17:44:03.042Z,15.23
2022-10-17T17:46:30.510Z,15.19
2022-10-17T17:48:58.352Z,15.16
2022-10-17T17:51:29.407Z,15.15
2022-10-17T17:53:58.053Z,15.15
2022-10-17T17:56:29.139Z,15.15
2022-10-17T17:58:59.576Z,15.16
2022-10-17T18:01:29.978Z,15.16
2022-10-17T18:04:00.486Z,15.15
2022-10-17T18:06:29.221Z,15.16
2022-10-17T18:09:02.668Z,15.16
2022-10-17T18:11:30.370Z,15.14
2022-10-17T18:14:01.006Z,15.12
2022-10-17T18:16:29.843Z,15.12
2022-10-17T18:19:00.311Z,15.06
2022-10-17T18:21:30.343Z,15.01
2022-10-17T18:23:59.184Z,15.01
2022-10-17T18:26:26.912Z,14.98
2022-10-17T18:28:54.663Z,14.97
2022-10-17T18:31:28.350Z,14.96
2022-10-17T18:33:57.748Z,14.94
2022-10-17T18:36:26.128Z,14.93
2022-10-17T18:38:54.722Z,14.87
2022-10-17T18:41:24.340Z,14.84
2022-10-17T18:43:53.071Z,14.84
2022-10-17T18:46:25.677Z,14.84
2022-10-17T18:48:53.689Z,14.80
2022-10-17T18:51:23.109Z,14.76
2022-10-17T18:53:53.383Z,14.70
2022-10-17T18:56:22.267Z,14.69
2022-10-17T18:58:50.311Z,14.68
2022-10-17T19:01:20.652Z,14.64
2022-10-17T19:03:50.449Z,14.64
2022-10-17T19:06:20.892Z,14.61
2022-10-17T19:08:49.217Z,14.57
2022-10-17T19:11:26.629Z,14.56
2022-10-17T19:13:54.895Z,14.59
2022-10-17T19:16:25.049Z,14.58
2022-10-17T19:19:01.653Z,14.57
2022-10-17T19:21:29.508Z,14.57
2022-10-17T19:24:03.591Z,14.55
2022-10-17T19:26:32.846Z,14.54
2022-10-17T19:29:00.952Z,14.54
2022-10-17T19:31:31.533Z,14.52
2022-10-17T19:33:59.641Z,14.51
2022-10-17T19:36:33.386Z,14.52
2022-10-17T19:39:03.660Z,14.54
2022-10-17T19:41:31.242Z,14.54
2022-10-17T19:43:58.798Z,14.55
2022-10-17T19:46:28.302Z,14.53
2022-10-17T19:48:56.179Z,14.54
2022-10-17T19:51:25.345Z,14.52
2022-10-17T19:53:54.885Z,14.50
2022-10-17T19:56:23.580Z,14.46
2022-10-17T19:58:51.906Z,14.45
2022-10-17T20:01:22.885Z,14.40
2022-10-17T20:03:51.361Z,14.37
2022-10-17T20:06:19.256Z,14.37
2022-10-17T20:08:46.827Z,14.39
2022-10-17T20:11:17.419Z,14.45
2022-10-17T20:13:45.883Z,14.49
2022-10-17T20:16:16.519Z,14.46
2022-10-17T20:18:44.783Z,14.44
2022-10-17T20:21:14.964Z,14.40
2022-10-17T20:23:43.443Z,14.40
2022-10-17T20:26:26.055Z,14.42
2022-10-17T20:29:03.846Z,14.46
2022-10-17T20:31:31.554Z,14.46
2022-10-17T20:34:00.402Z,14.50
2022-10-17T20:36:27.925Z,14.52
2022-10-17T20:38:56.885Z,14.56
2022-10-17T20:41:25.175Z,14.52
2022-10-17T20:43:53.757Z,14.54
2022-10-17T20:46:35.532Z,14.51
2022-10-17T20:49:05.056Z,14.51
2022-10-17T20:51:32.855Z,14.58
2022-10-17T20:54:00.499Z,14.56
2022-10-17T20:56:30.281Z,14.55
2022-10-17T20:59:03.322Z,14.54
2022-10-17T21:01:32.531Z,14.56
2022-10-17T21:04:15.919Z,14.58
2022-10-17T21:06:48.089Z,14.61
2022-10-17T21:09:16.102Z,14.54
2022-10-17T21:11:44.093Z,14.50
2022-10-17T21:14:12.807Z,14.52
2022-10-17T21:16:41.253Z,14.54
2022-10-17T21:19:08.771Z,14.54
2022-10-17T21:21:38.217Z,14.50
2022-10-17T21:24:09.025Z,14.46
2022-10-17T21:26:38.155Z,14.43
2022-10-17T21:29:07.057Z,14.40
2022-10-17T21:31:37.175Z,14.37
2022-10-17T21:34:13.324Z,14.32
2022-10-17T21:36:40.850Z,14.35
2022-10-17T21:41:41.534Z,14.37
2022-10-17T21:44:19.382Z,14.40
2022-10-17T21:46:47.643Z,14.33
2022-10-17T21:49:19.376Z,14.32
2022-10-17T21:51:48.233Z,14.32
2022-10-17T21:54:16.683Z,14.29
2022-10-17T21:56:44.545Z,14.29
2022-10-17T21:59:12.808Z,14.25
2022-10-17T22:01:43.276Z,14.21
2022-10-17T22:04:16.983Z,14.20
2022-10-17T22:06:47.655Z,14.18
2022-10-17T22:09:18.091Z,14.13
2022-10-17T22:11:48.128Z,14.14
2022-10-17T22:14:19.451Z,14.18
2022-10-17T22:16:48.248Z,14.18
2022-10-17T22:19:23.053Z,14.17
2022-10-17T22:21:50.686Z,14.17
2022-10-17T22:26:52.983Z,14.15
2022-10-17T22:29:20.855Z,14.17
2022-10-17T22:31:48.326Z,14.15
2022-10-17T22:34:17.510Z,14.13
2022-10-17T22:36:45.370Z,14.12
2022-10-17T22:39:12.915Z,14.10
2022-10-17T22:41:40.515Z,14.15
2022-10-17T22:44:07.981Z,14.13
2022-10-17T22:46:35.527Z,14.08
2022-10-17T22:49:03.132Z,14.10
2022-10-17T22:51:30.656Z,14.07
2022-10-17T22:53:58.254Z,14.08
2022-10-17T22:56:25.790Z,14.05
2022-10-17T22:58:54.194Z,14.05
2022-10-17T23:01:24.365Z,14.04
2022-10-17T23:03:53.467Z,14.00
2022-10-17T23:06:21.599Z,13.97
2022-10-17T23:08:49.626Z,13.98
2022-10-17T23:11:17.713Z,13.95
2022-10-17T23:13:45.513Z,13.96
2022-10-17T23:16:12.970Z,13.93
2022-10-17T23:18:40.939Z,13.88
2022-10-17T23:21:09.335Z,13.88
2022-10-17T23:23:37.517Z,13.84
2022-10-17T23:26:12.250Z,13.82
2022-10-17T23:28:40.819Z,13.79
2022-10-17T23:31:15.920Z,13.80
2022-10-17T23:33:45.051Z,13.78
2022-10-17T23:36:14.801Z,13.75
2022-10-17T23:38:44.093Z,13.75
2022-10-17T23:41:12.535Z,13.73
2022-10-17T23:43:40.077Z,13.68
2022-10-17T23:46:08.561Z,13.72
2022-10-17T23:48:36.086Z,13.68
2022-10-17T23:51:04.395Z,13.62
2022-10-17T23:53:32.281Z,13.64
2022-10-17T23:55:59.785Z,13.63
2022-10-17T23:58:27.231Z,13.64
